createdAt,value
2023-02-21T00:02:03.809Z,4.15
2023-02-21T00:04:49.420Z,4.82
2023-02-21T00:07:35.166Z,5.22
2023-02-21T00:10:22.698Z,5.15
2023-02-21T00:13:08.577Z,4.82
2023-02-21T00:15:54.449Z,4.43
2023-02-21T00:18:40.693Z,4.72
2023-02-21T00:21:26.548Z,8.23
2023-02-21T00:24:12.186Z,4.63
2023-02-21T00:26:59.489Z,4.50
2023-02-21T00:29:45.550Z,6.68
2023-02-21T00:32:31.657Z,4.53
2023-02-21T00:35:17.721Z,3.95
2023-02-21T00:38:03.684Z,4.05
2023-02-21T00:40:49.796Z,5.65
2023-02-21T00:43:36.849Z,7.75
2023-02-21T00:46:22.822Z,5.68
2023-02-21T00:49:08.667Z,6.35
2023-02-21T00:51:54.625Z,5.20
2023-02-21T00:54:40.616Z,6.43
2023-02-21T00:57:26.231Z,7.68
2023-02-21T01:00:13.443Z,5.43
2023-02-21T01:03:00.109Z,6.85
2023-02-21T01:05:45.859Z,6.75
2023-02-21T01:08:31.828Z,4.60
2023-02-21T01:11:17.864Z,4.82
2023-02-21T01:14:03.610Z,5.05
2023-02-21T01:16:51.425Z,4.75
2023-02-21T01:19:37.810Z,6.10
2023-02-21T01:22:23.936Z,4.80
2023-02-21T01:25:09.897Z,4.47
2023-02-21T01:27:56.209Z,4.63
2023-02-21T01:30:42.301Z,4.70
2023-02-21T01:33:29.645Z,7.10
2023-02-21T01:36:15.391Z,5.30
2023-02-21T01:39:01.445Z,7.32
2023-02-21T01:41:47.379Z,4.55
2023-02-21T01:44:50.395Z,5.38
2023-02-21T01:47:36.294Z,4.65
2023-02-21T01:50:31.915Z,3.85
2023-02-21T01:53:18.403Z,4.03
2023-02-21T01:56:04.355Z,7.15
2023-02-21T01:58:51.118Z,4.05
2023-02-21T02:01:44.528Z,7.60
2023-02-21T02:04:30.890Z,3.92
2023-02-21T02:07:18.325Z,4.65
2023-02-21T02:10:04.134Z,9.02
2023-02-21T02:12:43.731Z,5.57
2023-02-21T02:15:43.186Z,5.93
2023-02-21T02:18:23.639Z,5.55
2023-02-21T02:21:09.899Z,6.00
2023-02-21T02:24:01.478Z,4.70
2023-02-21T02:27:08.724Z,5.40
2023-02-21T02:29:50.662Z,5.97
2023-02-21T02:32:34.149Z,5.03
2023-02-21T02:35:06.773Z,6.05
2023-02-21T02:37:40.428Z,7.32
2023-02-21T02:40:14.854Z,6.47
2023-02-21T02:42:50.336Z,6.75
2023-02-21T02:45:22.815Z,4.32
2023-02-21T02:47:53.541Z,5.72
2023-02-21T02:50:24.342Z,5.90
2023-02-21T02:52:53.940Z,4.30
2023-02-21T02:55:27.842Z,3.90
2023-02-21T02:57:56.295Z,4.00
2023-02-21T03:00:24.868Z,7.10
2023-02-21T03:03:09.618Z,4.60
2023-02-21T03:05:51.007Z,6.18
2023-02-21T03:08:22.794Z,5.57
2023-02-21T03:10:57.029Z,3.97
2023-02-21T03:13:34.459Z,5.45
2023-02-21T03:16:10.044Z,5.50
2023-02-21T03:18:42.360Z,3.83
2023-02-21T03:21:18.943Z,8.23
2023-02-21T03:23:49.530Z,4.28
2023-02-21T03:28:46.302Z,5.63
2023-02-21T03:31:15.976Z,5.63
2023-02-21T03:33:44.854Z,7.25
2023-02-21T03:36:15.746Z,5.93
2023-02-21T03:38:44.043Z,5.97
2023-02-21T03:41:14.125Z,8.25
2023-02-21T03:43:42.577Z,4.38
2023-02-21T03:46:10.822Z,7.53
2023-02-21T03:48:39.113Z,6.35
2023-02-21T03:51:07.485Z,6.38
2023-02-21T03:53:37.137Z,7.20
2023-02-21T03:56:05.987Z,10.82
2023-02-21T03:58:34.245Z,6.35
2023-02-21T04:01:03.624Z,8.18
2023-02-21T04:03:32.129Z,10.18
2023-02-21T04:06:00.475Z,7.10
2023-02-21T04:08:28.707Z,6.18
2023-02-21T04:10:58.302Z,9.32
2023-02-21T04:13:26.555Z,4.28
2023-02-21T04:15:54.816Z,7.32
2023-02-21T04:18:23.050Z,5.20
2023-02-21T04:20:51.438Z,6.30
2023-02-21T04:23:20.273Z,7.00
2023-02-21T04:25:49.148Z,9.65
2023-02-21T04:28:18.762Z,7.97
2023-02-21T04:30:47.223Z,3.88
2023-02-21T04:33:15.432Z,4.22
2023-02-21T04:35:43.885Z,8.15
2023-02-21T04:38:12.096Z,5.78
2023-02-21T04:40:40.312Z,6.90
2023-02-21T04:43:08.578Z,7.35
2023-02-21T04:45:38.178Z,5.93
2023-02-21T04:48:06.778Z,6.13
2023-02-21T04:50:35.009Z,5.80
2023-02-21T04:53:03.309Z,6.20
2023-02-21T04:55:31.549Z,6.22
2023-02-21T04:57:59.819Z,5.45
2023-02-21T05:00:28.074Z,3.85
2023-02-21T05:02:58.276Z,4.97
2023-02-21T05:05:26.648Z,9.43
2023-02-21T05:07:54.958Z,6.78
2023-02-21T05:10:25.452Z,7.40
2023-02-21T05:12:55.378Z,6.32
2023-02-21T05:15:23.816Z,5.05
2023-02-21T05:17:52.086Z,5.97
2023-02-21T05:20:21.937Z,7.88
2023-02-21T05:22:50.491Z,5.55
2023-02-21T05:25:21.102Z,5.68
2023-02-21T05:30:19.901Z,6.30
2023-02-21T05:32:48.241Z,5.43
2023-02-21T05:35:17.574Z,6.88
2023-02-21T05:37:47.221Z,4.97
2023-02-21T05:40:16.992Z,6.43
2023-02-21T05:42:45.453Z,4.83
2023-02-21T05:45:13.756Z,4.60
2023-02-21T05:47:41.977Z,7.07
2023-02-21T05:50:10.297Z,7.03
2023-02-21T05:52:38.534Z,6.72
2023-02-21T05:55:08.674Z,8.80
2023-02-21T05:57:39.608Z,5.03
2023-02-21T06:00:14.556Z,7.20
2023-02-21T06:02:42.810Z,9.50
2023-02-21T06:05:11.999Z,9.27
2023-02-21T06:07:40.258Z,6.30
2023-02-21T06:10:10.139Z,6.57
2023-02-21T06:12:38.357Z,6.90
2023-02-21T06:15:07.501Z,6.75
2023-02-21T06:17:35.709Z,6.20
2023-02-21T06:20:04.063Z,7.38
2023-02-21T06:22:32.522Z,10.30
2023-02-21T06:25:00.982Z,9.60
2023-02-21T06:27:30.630Z,4.65
2023-02-21T06:29:58.899Z,5.60
2023-02-21T06:32:27.768Z,4.53
2023-02-21T06:34:56.058Z,4.68
2023-02-21T06:37:24.398Z,8.00
2023-02-21T06:39:52.619Z,6.75
2023-02-21T06:42:21.233Z,8.30
2023-02-21T06:44:51.031Z,5.78
2023-02-21T06:47:19.338Z,6.88
2023-02-21T06:49:47.584Z,5.13
2023-02-21T06:52:16.564Z,5.78
2023-02-21T06:54:46.025Z,7.75
2023-02-21T06:57:14.237Z,7.20
2023-02-21T06:59:42.472Z,5.88
2023-02-21T07:02:18.298Z,10.07
2023-02-21T07:04:46.951Z,6.30
2023-02-21T07:07:15.584Z,7.10
2023-02-21T07:09:44.082Z,6.43
2023-02-21T07:12:12.428Z,7.78
2023-02-21T07:14:40.813Z,7.35
2023-02-21T07:17:09.023Z,6.88
2023-02-21T07:19:38.619Z,7.30
2023-02-21T07:22:06.936Z,6.85
2023-02-21T07:24:36.691Z,7.20
2023-02-21T07:27:05.767Z,7.53
2023-02-21T07:29:34.037Z,11.07
2023-02-21T07:32:02.426Z,8.48
2023-02-21T07:34:30.649Z,7.18
2023-02-21T07:37:00.226Z,9.55
2023-02-21T07:39:28.459Z,4.97
2023-02-21T07:41:56.663Z,7.38
2023-02-21T07:44:25.005Z,7.82
2023-02-21T07:46:53.295Z,8.88
2023-02-21T07:49:21.537Z,9.07
2023-02-21T07:51:49.820Z,5.93
2023-02-21T07:54:19.763Z,9.93
2023-02-21T07:56:49.633Z,7.30
2023-02-21T07:59:17.939Z,6.55
2023-02-21T08:01:47.588Z,9.25
2023-02-21T08:04:20.394Z,4.93
2023-02-21T08:06:49.368Z,6.57
2023-02-21T08:09:18.928Z,5.80
2023-02-21T08:11:47.135Z,5.55
2023-02-21T08:14:15.351Z,6.47
2023-02-21T08:16:43.579Z,6.68
2023-02-21T08:19:11.951Z,6.45
2023-02-21T08:21:40.206Z,5.65
2023-02-21T08:24:08.579Z,8.27
2023-02-21T08:26:38.186Z,8.10
2023-02-21T08:29:06.447Z,6.85
2023-02-21T08:31:36.131Z,6.03
2023-02-21T08:34:05.160Z,7.68
2023-02-21T08:36:33.758Z,5.40
2023-02-21T08:39:02.021Z,5.35
2023-02-21T08:41:38.443Z,6.53
2023-02-21T08:44:07.195Z,5.53
2023-02-21T08:46:36.097Z,5.90
2023-02-21T08:49:05.299Z,7.22
2023-02-21T08:51:34.497Z,5.18
2023-02-21T08:54:03.360Z,5.93
2023-02-21T08:56:31.867Z,5.50
2023-02-21T08:59:02.099Z,6.47
2023-02-21T09:01:34.269Z,9.27
2023-02-21T09:04:02.640Z,6.28
2023-02-21T09:06:31.206Z,5.50
2023-02-21T09:08:59.665Z,5.30
2023-02-21T09:11:28.002Z,4.70
2023-02-21T09:13:56.268Z,5.35
2023-02-21T09:16:26.245Z,7.65
2023-02-21T09:18:56.888Z,6.68
2023-02-21T09:23:54.911Z,4.28
2023-02-21T09:26:24.387Z,6.78
2023-02-21T09:28:53.164Z,5.10
2023-02-21T09:31:22.190Z,5.70
2023-02-21T09:33:51.907Z,4.97
2023-02-21T09:36:23.630Z,5.97
2023-02-21T09:38:51.932Z,3.10
2023-02-21T09:41:21.304Z,4.40
2023-02-21T09:43:52.631Z,4.85
2023-02-21T09:46:26.016Z,2.35
2023-02-21T09:48:55.647Z,6.93
2023-02-21T09:51:25.134Z,7.43
2023-02-21T09:53:56.211Z,6.38
2023-02-21T09:56:28.707Z,3.60
2023-02-21T09:58:58.881Z,2.78
2023-02-21T10:01:34.076Z,3.83
2023-02-21T10:04:15.034Z,6.30
2023-02-21T10:06:48.826Z,5.13
2023-02-21T10:09:25.447Z,3.20
2023-02-21T10:12:04.772Z,3.45
2023-02-21T10:14:42.177Z,4.22
2023-02-21T10:17:15.679Z,4.90
2023-02-21T10:19:49.989Z,6.40
2023-02-21T10:22:22.123Z,4.13
2023-02-21T10:24:51.032Z,6.53
2023-02-21T10:27:21.312Z,7.45
2023-02-21T10:29:52.369Z,7.03
2023-02-21T10:32:21.148Z,3.30
2023-02-21T10:34:50.867Z,4.90
2023-02-21T10:37:29.244Z,5.37
2023-02-21T10:40:02.149Z,4.43
2023-02-21T10:42:47.856Z,2.90
2023-02-21T10:45:17.927Z,3.38
2023-02-21T10:47:55.131Z,3.80
2023-02-21T10:50:44.414Z,4.50
2023-02-21T10:53:26.488Z,5.25
2023-02-21T10:56:19.959Z,4.97
2023-02-21T10:58:49.492Z,5.70
2023-02-21T11:01:21.346Z,1.90
2023-02-21T11:03:52.306Z,2.70
2023-02-21T11:06:28.420Z,1.73
2023-02-21T11:08:56.748Z,2.67
2023-02-21T11:11:37.265Z,1.30
2023-02-21T11:14:22.050Z,3.17
2023-02-21T11:17:14.524Z,3.33
2023-02-21T11:19:54.236Z,5.53
2023-02-21T11:22:26.594Z,2.85
2023-02-21T11:25:06.322Z,3.40
2023-02-21T11:27:36.679Z,3.50
2023-02-21T11:30:12.588Z,1.45
2023-02-21T11:32:42.002Z,3.13
2023-02-21T11:35:24.205Z,2.03
2023-02-21T11:37:56.527Z,4.40
2023-02-21T11:40:27.994Z,2.80
2023-02-21T11:43:22.478Z,3.05
2023-02-21T11:46:01.030Z,2.42
2023-02-21T11:48:32.977Z,2.08
2023-02-21T11:51:07.541Z,3.10
2023-02-21T11:53:41.216Z,1.60
2023-02-21T11:56:18.866Z,2.85
2023-02-21T11:58:56.519Z,3.00
2023-02-21T12:01:29.908Z,2.72
2023-02-21T12:04:44.038Z,2.63
2023-02-21T12:07:18.400Z,1.98
2023-02-21T12:09:54.295Z,1.70
2023-02-21T12:12:32.831Z,2.58
2023-02-21T12:15:07.221Z,1.55
2023-02-21T12:17:53.598Z,4.15
2023-02-21T12:20:27.287Z,3.60
2023-02-21T12:23:12.347Z,2.92
2023-02-21T12:25:53.548Z,2.13
2023-02-21T12:28:27.959Z,3.53
2023-02-21T12:31:09.588Z,3.08
2023-02-21T12:33:45.832Z,6.15
2023-02-21T12:36:36.917Z,3.97
2023-02-21T12:39:17.535Z,4.63
2023-02-21T12:44:22.611Z,2.30
2023-02-21T12:46:54.940Z,4.18
2023-02-21T12:49:25.677Z,2.65
2023-02-21T12:51:59.127Z,2.70
2023-02-21T12:54:36.827Z,2.22
2023-02-21T12:57:09.462Z,1.63
2023-02-21T12:59:47.615Z,2.33
2023-02-21T13:02:22.014Z,2.65
2023-02-21T13:04:55.809Z,3.28
2023-02-21T13:07:26.388Z,2.30
2023-02-21T13:12:28.286Z,2.20
2023-02-21T13:14:58.638Z,2.28
2023-02-21T13:17:27.801Z,3.30
2023-02-21T13:20:01.724Z,3.53
2023-02-21T13:23:25.199Z,2.15
2023-02-21T13:26:04.902Z,2.58
2023-02-21T13:28:36.532Z,3.57
2023-02-21T13:31:06.601Z,2.35
2023-02-21T13:33:39.462Z,2.40
2023-02-21T13:36:19.895Z,2.80
2023-02-21T13:38:48.615Z,2.63
2023-02-21T13:41:17.514Z,2.55
2023-02-21T13:43:51.300Z,1.65
2023-02-21T13:46:58.780Z,2.30
2023-02-21T13:49:48.327Z,2.65
2023-02-21T13:52:28.831Z,1.17
2023-02-21T13:55:26.244Z,2.08
2023-02-21T13:58:30.045Z,1.63
2023-02-21T14:01:18.934Z,2.22
2023-02-21T14:03:47.216Z,2.55
2023-02-21T14:06:36.569Z,2.88
2023-02-21T14:09:08.218Z,2.15
2023-02-21T14:11:39.503Z,1.88
2023-02-21T14:14:21.817Z,2.53
2023-02-21T14:16:54.799Z,3.65
2023-02-21T14:19:26.635Z,1.10
2023-02-21T14:22:02.842Z,1.08
2023-02-21T14:24:33.520Z,1.33
2023-02-21T14:27:05.301Z,1.40
2023-02-21T14:29:36.574Z,1.80
2023-02-21T14:32:27.725Z,2.15
2023-02-21T14:34:57.964Z,1.17
2023-02-21T14:37:29.546Z,2.35
2023-02-21T14:40:00.319Z,2.33
2023-02-21T14:42:36.824Z,2.55
2023-02-21T14:45:30.554Z,5.35
2023-02-21T14:48:10.126Z,1.40
2023-02-21T14:50:45.175Z,1.73
2023-02-21T14:53:40.019Z,2.83
2023-02-21T14:56:35.078Z,1.88
2023-02-21T14:59:32.055Z,1.52
2023-02-21T15:02:08.430Z,2.28
2023-02-21T15:04:44.053Z,1.25
2023-02-21T15:07:18.812Z,4.30
2023-02-21T15:09:47.547Z,2.33
2023-02-21T15:12:17.950Z,1.85
2023-02-21T15:14:49.961Z,1.75
2023-02-21T15:17:20.382Z,1.75
2023-02-21T15:20:02.809Z,3.97
2023-02-21T15:22:31.123Z,2.42
2023-02-21T15:25:13.058Z,2.25
2023-02-21T15:27:55.549Z,1.15
2023-02-21T15:30:25.869Z,1.73
2023-02-21T15:32:59.244Z,3.50
2023-02-21T15:35:34.329Z,1.13
2023-02-21T15:38:05.201Z,0.75
2023-02-21T15:40:33.591Z,1.38
2023-02-21T15:43:02.608Z,1.95
2023-02-21T15:45:32.643Z,2.72
2023-02-21T15:48:01.834Z,2.15
2023-02-21T15:50:35.487Z,0.95
2023-02-21T15:53:19.081Z,1.60
2023-02-21T15:55:48.838Z,2.00
2023-02-21T15:58:23.788Z,1.40
2023-02-21T16:01:07.233Z,1.92
2023-02-21T16:03:38.346Z,1.75
2023-02-21T16:06:20.998Z,5.25
2023-02-21T16:09:02.070Z,1.65
2023-02-21T16:11:45.459Z,2.70
2023-02-21T16:14:23.855Z,1.75
2023-02-21T16:16:56.198Z,3.15
2023-02-21T16:19:24.803Z,2.08
2023-02-21T16:22:12.811Z,1.58
2023-02-21T16:24:41.723Z,1.67
2023-02-21T16:27:12.881Z,4.18
2023-02-21T16:29:41.146Z,3.28
2023-02-21T16:32:17.417Z,4.63
2023-02-21T16:34:45.707Z,2.97
2023-02-21T16:37:15.894Z,1.70
2023-02-21T16:39:44.453Z,1.33
2023-02-21T16:42:12.732Z,4.43
2023-02-21T16:44:41.074Z,1.05
2023-02-21T16:47:09.429Z,1.80
2023-02-21T16:49:37.637Z,1.58
2023-02-21T16:52:06.125Z,2.33
2023-02-21T16:54:35.687Z,2.88
2023-02-21T16:57:03.954Z,3.35
2023-02-21T16:59:32.251Z,3.28
2023-02-21T17:02:01.344Z,2.00
2023-02-21T17:04:29.765Z,3.80
2023-02-21T17:06:59.611Z,3.67
2023-02-21T17:09:29.472Z,3.38
2023-02-21T17:12:00.143Z,5.20
2023-02-21T17:16:59.128Z,9.00
2023-02-21T17:19:27.328Z,11.13
2023-02-21T17:21:58.123Z,5.63
2023-02-21T17:24:26.367Z,4.97
2023-02-21T17:26:54.968Z,4.95
2023-02-21T17:29:25.515Z,11.27
2023-02-21T17:34:22.964Z,5.93
2023-02-21T17:36:51.770Z,5.70
2023-02-21T17:39:20.470Z,3.58
2023-02-21T17:41:49.222Z,3.28
2023-02-21T17:44:19.000Z,9.07
2023-02-21T17:46:49.472Z,26.70
2023-02-21T17:49:18.824Z,7.40
2023-02-21T17:54:19.398Z,7.78
2023-02-21T17:56:47.743Z,10.55
2023-02-21T17:59:16.572Z,10.13
2023-02-21T18:01:44.994Z,8.70
2023-02-21T18:04:15.210Z,7.05
2023-02-21T18:06:43.687Z,6.50
2023-02-21T18:09:12.097Z,7.40
2023-02-21T18:11:40.354Z,14.32
2023-02-21T18:14:08.575Z,9.93
2023-02-21T18:16:36.838Z,8.18
2023-02-21T18:19:05.095Z,7.63
2023-02-21T18:21:34.951Z,5.63
2023-02-21T18:24:03.539Z,12.27
2023-02-21T18:26:31.765Z,4.93
2023-02-21T18:29:00.007Z,5.03
2023-02-21T18:31:28.289Z,4.72
2023-02-21T18:33:56.570Z,6.95
2023-02-21T18:36:26.529Z,3.53
2023-02-21T18:38:56.375Z,5.07
2023-02-21T18:41:24.598Z,5.35
2023-02-21T18:43:53.378Z,6.65
2023-02-21T18:46:23.835Z,6.43
2023-02-21T18:48:52.346Z,5.35
2023-02-21T18:51:21.370Z,3.92
2023-02-21T18:53:50.481Z,5.53
2023-02-21T18:56:21.147Z,8.05
2023-02-21T19:01:19.633Z,3.35
2023-02-21T19:03:48.238Z,7.85
2023-02-21T19:06:18.070Z,7.88
2023-02-21T19:08:46.844Z,15.38
2023-02-21T19:11:15.845Z,8.73
2023-02-21T19:13:47.391Z,4.45
2023-02-21T19:16:15.816Z,6.25
2023-02-21T19:18:44.122Z,5.63
2023-02-21T19:21:12.973Z,4.10
2023-02-21T19:23:41.352Z,5.70
2023-02-21T19:26:09.607Z,2.20
2023-02-21T19:28:39.964Z,26.98
2023-02-21T19:31:10.738Z,22.58
2023-02-21T19:33:40.088Z,10.38
2023-02-21T19:36:09.891Z,7.15
2023-02-21T19:38:38.312Z,7.78
2023-02-21T19:41:07.457Z,3.88
2023-02-21T19:43:36.012Z,3.70
2023-02-21T19:46:04.483Z,1.88
2023-02-21T19:48:34.151Z,3.35
2023-02-21T19:51:02.384Z,5.28
2023-02-21T19:53:30.628Z,5.10
2023-02-21T19:55:58.837Z,5.00
2023-02-21T19:58:27.056Z,4.65
2023-02-21T20:00:55.413Z,6.28
2023-02-21T20:03:23.749Z,6.10
2023-02-21T20:05:53.753Z,5.15
2023-02-21T20:08:22.103Z,5.55
2023-02-21T20:10:50.905Z,7.15
2023-02-21T20:13:20.223Z,7.18
2023-02-21T20:15:50.726Z,8.23
2023-02-21T20:20:49.557Z,7.75
2023-02-21T20:25:47.805Z,7.00
2023-02-21T20:28:16.101Z,8.18
2023-02-21T20:30:44.570Z,6.93
2023-02-21T20:33:12.901Z,8.90
2023-02-21T20:35:41.228Z,8.35
2023-02-21T20:38:10.827Z,9.13
2023-02-21T20:40:40.507Z,8.02
2023-02-21T20:43:08.768Z,10.60
2023-02-21T20:45:38.481Z,8.13
2023-02-21T20:48:08.906Z,7.10
2023-02-21T20:50:37.182Z,7.63
2023-02-21T20:53:05.798Z,8.77
2023-02-21T20:55:37.297Z,8.55
2023-02-21T20:58:07.150Z,8.52
2023-02-21T21:00:37.743Z,6.72
2023-02-21T21:05:34.877Z,7.25
2023-02-21T21:08:03.195Z,7.75
2023-02-21T21:10:31.464Z,4.78
2023-02-21T21:12:59.826Z,4.22
2023-02-21T21:15:29.937Z,3.67
2023-02-21T21:17:58.293Z,6.28
2023-02-21T21:20:27.112Z,4.55
2023-02-21T21:22:55.423Z,5.75
2023-02-21T21:25:23.720Z,5.32
2023-02-21T21:27:51.994Z,5.85
2023-02-21T21:30:23.344Z,7.18
2023-02-21T21:32:53.031Z,6.72
2023-02-21T21:35:22.099Z,8.63
2023-02-21T21:37:50.813Z,3.97
2023-02-21T21:40:19.404Z,3.97
2023-02-21T21:42:49.966Z,6.72
2023-02-21T21:45:19.596Z,6.22
2023-02-21T21:47:48.598Z,5.28
2023-02-21T21:50:19.232Z,4.45
2023-02-21T21:52:51.323Z,5.53
2023-02-21T21:55:21.993Z,7.13
2023-02-21T22:00:23.777Z,8.00
2023-02-21T22:02:57.147Z,3.97
2023-02-21T22:05:27.661Z,6.38
2023-02-21T22:07:56.587Z,6.45
2023-02-21T22:10:26.041Z,6.00
2023-02-21T22:12:56.561Z,6.18
2023-02-21T22:17:54.130Z,6.57
2023-02-21T22:20:28.420Z,9.63
2023-02-21T22:22:59.036Z,8.88
2023-02-21T22:28:00.537Z,9.15
2023-02-21T22:30:28.894Z,12.45
2023-02-21T22:32:57.184Z,10.55
2023-02-21T22:35:25.611Z,12.48
2023-02-21T22:37:55.852Z,10.90
2023-02-21T22:40:28.027Z,9.77
2023-02-21T22:42:59.317Z,10.90
2023-02-21T22:45:28.963Z,9.00
2023-02-21T22:47:57.731Z,9.68
2023-02-21T22:50:27.112Z,10.68
2023-02-21T22:52:57.642Z,13.05
2023-02-21T22:55:29.732Z,20.52
2023-02-21T22:57:59.719Z,12.45
2023-02-21T23:00:33.272Z,12.70
2023-02-21T23:03:02.621Z,13.77
2023-02-21T23:05:31.428Z,9.52
2023-02-21T23:07:59.709Z,11.95
2023-02-21T23:10:29.651Z,9.07
2023-02-21T23:13:00.009Z,8.95
2023-02-21T23:15:28.883Z,10.23
2023-02-21T23:17:57.175Z,7.80
2023-02-21T23:20:29.223Z,14.13
2023-02-21T23:22:58.947Z,9.23
2023-02-21T23:25:35.077Z,12.10
2023-02-21T23:28:06.878Z,12.38
2023-02-21T23:30:42.112Z,11.10
2023-02-21T23:33:14.480Z,10.90
2023-02-21T23:35:43.320Z,13.52
2023-02-21T23:38:15.556Z,11.27
2023-02-21T23:40:46.776Z,9.52
2023-02-21T23:43:16.862Z,12.43
2023-02-21T23:45:48.217Z,9.35
2023-02-21T23:48:16.545Z,6.82
2023-02-21T23:50:46.520Z,12.05
2023-02-21T23:53:16.546Z,10.10
2023-02-21T23:55:47.150Z,9.75
2023-02-21T23:58:17.159Z,12.10
